createdAt,value
2017-05-22T00:02:23.156Z,7.70
2017-05-22T00:04:50.445Z,9.50
2017-05-22T00:07:18.073Z,8.26
2017-05-22T00:09:45.459Z,8.44
2017-05-22T00:12:12.683Z,8.42
2017-05-22T00:14:40.075Z,7.94
2017-05-22T00:17:07.283Z,8.24
2017-05-22T00:19:34.470Z,8.32
2017-05-22T00:22:01.678Z,8.42
2017-05-22T00:24:28.896Z,8.26
2017-05-22T00:26:56.145Z,7.90
2017-05-22T00:29:23.571Z,8.76
2017-05-22T00:31:50.856Z,8.96
2017-05-22T00:34:18.080Z,8.32
2017-05-22T00:36:45.572Z,7.46
2017-05-22T00:39:12.882Z,7.40
2017-05-22T00:41:40.220Z,7.86
2017-05-22T00:44:07.449Z,7.12
2017-05-22T00:46:34.782Z,7.54
2017-05-22T00:49:02.024Z,7.80
2017-05-22T00:51:29.246Z,6.82
2017-05-22T00:53:56.451Z,7.14
2017-05-22T00:56:23.655Z,6.76
2017-05-22T00:58:50.882Z,7.64
2017-05-22T01:01:18.094Z,7.42
2017-05-22T01:03:45.317Z,6.50
2017-05-22T01:06:12.511Z,7.00
2017-05-22T01:08:39.760Z,6.12
2017-05-22T01:11:06.962Z,6.72
2017-05-22T01:13:34.307Z,6.44
2017-05-22T01:16:01.575Z,6.48
2017-05-22T01:18:28.762Z,6.72
2017-05-22T01:20:56.227Z,6.34
2017-05-22T01:23:23.482Z,5.30
2017-05-22T01:25:50.692Z,6.46
2017-05-22T01:28:17.934Z,6.30
2017-05-22T01:30:45.158Z,6.12
2017-05-22T01:33:12.355Z,7.84
2017-05-22T01:35:39.582Z,6.36
2017-05-22T01:38:06.769Z,7.22
2017-05-22T01:40:34.022Z,6.70
2017-05-22T01:43:02.907Z,10.04
2017-05-22T01:45:30.152Z,7.10
2017-05-22T01:47:57.428Z,5.94
2017-05-22T01:50:24.619Z,7.24
2017-05-22T01:52:51.831Z,6.94
2017-05-22T01:55:19.029Z,7.26
2017-05-22T01:57:46.227Z,7.08
2017-05-22T02:00:13.673Z,6.76
2017-05-22T02:02:40.891Z,6.96
2017-05-22T02:05:08.187Z,6.68
2017-05-22T02:07:35.411Z,7.08
2017-05-22T02:10:02.675Z,7.04
2017-05-22T02:12:29.981Z,6.52
2017-05-22T02:14:57.200Z,7.02
2017-05-22T02:17:31.640Z,7.28
2017-05-22T02:19:58.868Z,6.74
2017-05-22T02:22:26.098Z,6.72
2017-05-22T02:24:53.911Z,7.16
2017-05-22T02:27:21.112Z,6.86
2017-05-22T02:29:48.363Z,7.62
2017-05-22T02:32:15.826Z,7.78
2017-05-22T02:34:43.098Z,7.66
2017-05-22T02:37:10.387Z,7.58
2017-05-22T02:39:37.773Z,7.42
2017-05-22T02:42:05.129Z,7.58
2017-05-22T02:44:32.355Z,7.48
2017-05-22T02:46:59.574Z,7.22
2017-05-22T02:49:26.851Z,7.58
2017-05-22T02:51:54.107Z,8.22
2017-05-22T02:54:21.463Z,6.90
2017-05-22T02:56:48.768Z,8.68
2017-05-22T02:59:16.010Z,8.22
2017-05-22T03:01:43.327Z,8.26
2017-05-22T03:04:10.522Z,8.50
2017-05-22T03:06:37.736Z,8.28
2017-05-22T03:09:04.946Z,7.96
2017-05-22T03:11:32.248Z,9.02
2017-05-22T03:13:59.612Z,8.98
2017-05-22T03:16:26.830Z,8.86
2017-05-22T03:18:58.189Z,7.96
2017-05-22T03:21:25.382Z,8.10
2017-05-22T03:23:59.865Z,8.32
2017-05-22T03:26:27.050Z,7.96
2017-05-22T03:28:54.445Z,8.54
2017-05-22T03:31:21.738Z,8.06
2017-05-22T03:33:48.934Z,8.96
2017-05-22T03:36:16.167Z,8.12
2017-05-22T03:38:43.380Z,8.92
2017-05-22T03:41:10.583Z,8.50
2017-05-22T03:43:38.670Z,9.60
2017-05-22T03:46:16.965Z,9.18
2017-05-22T03:48:44.179Z,9.46
2017-05-22T03:51:11.458Z,8.88
2017-05-22T03:53:38.652Z,9.28
2017-05-22T03:56:05.894Z,9.30
2017-05-22T03:58:33.110Z,8.48
2017-05-22T04:01:00.375Z,9.60
2017-05-22T04:03:28.557Z,8.32
2017-05-22T04:05:56.836Z,8.28
2017-05-22T04:08:24.073Z,9.72
2017-05-22T04:10:57.799Z,8.92
2017-05-22T04:13:31.290Z,9.40
2017-05-22T04:15:58.938Z,8.92
2017-05-22T04:18:26.165Z,8.70
2017-05-22T04:20:54.337Z,8.22
2017-05-22T04:23:21.541Z,7.94
2017-05-22T04:25:48.802Z,8.04
2017-05-22T04:28:16.771Z,8.04
2017-05-22T04:30:43.973Z,9.68
2017-05-22T04:33:11.356Z,7.24
2017-05-22T04:35:38.575Z,8.40
2017-05-22T04:38:06.444Z,8.46
2017-05-22T04:40:47.249Z,9.28
2017-05-22T04:43:18.358Z,8.52
2017-05-22T04:45:45.596Z,8.90
2017-05-22T04:48:12.878Z,8.52
2017-05-22T04:50:40.808Z,8.48
2017-05-22T04:53:08.491Z,9.78
2017-05-22T04:55:35.731Z,9.08
2017-05-22T04:58:03.883Z,8.94
2017-05-22T05:00:33.647Z,9.56
2017-05-22T05:03:02.691Z,9.36
2017-05-22T05:05:35.491Z,9.16
2017-05-22T05:08:02.814Z,8.94
2017-05-22T05:10:31.990Z,9.58
2017-05-22T05:12:59.196Z,10.30
2017-05-22T05:15:26.978Z,9.06
2017-05-22T05:17:56.295Z,9.24
2017-05-22T05:20:23.536Z,10.76
2017-05-22T05:22:53.661Z,9.34
2017-05-22T05:25:20.894Z,7.94
2017-05-22T05:27:49.128Z,8.44
2017-05-22T05:33:09.098Z,16.00
2017-05-22T05:35:36.343Z,8.16
2017-05-22T05:38:05.005Z,8.52
2017-05-22T05:40:32.486Z,8.60
2017-05-22T05:43:00.099Z,8.44
2017-05-22T05:45:29.637Z,8.50
2017-05-22T05:47:57.626Z,7.64
2017-05-22T05:50:26.731Z,7.42
2017-05-22T05:52:54.921Z,7.72
2017-05-22T05:55:22.136Z,7.70
2017-05-22T05:57:49.367Z,8.14
2017-05-22T06:00:20.130Z,7.24
2017-05-22T06:02:47.479Z,7.84
2017-05-22T06:05:14.743Z,7.18
2017-05-22T06:07:47.629Z,9.94
2017-05-22T06:10:14.941Z,8.16
2017-05-22T06:12:42.153Z,8.18
2017-05-22T06:15:10.375Z,7.58
2017-05-22T06:17:37.689Z,8.34
2017-05-22T06:20:05.202Z,10.60
2017-05-22T06:22:32.491Z,8.30
2017-05-22T06:24:59.699Z,9.00
2017-05-22T06:27:27.913Z,8.04
2017-05-22T06:29:55.144Z,12.88
2017-05-22T06:32:22.348Z,8.74
2017-05-22T06:34:49.697Z,8.46
2017-05-22T06:37:17.020Z,8.58
2017-05-22T06:39:44.266Z,9.54
2017-05-22T06:42:11.474Z,10.38
2017-05-22T06:44:38.792Z,9.44
2017-05-22T06:47:05.995Z,8.78
2017-05-22T06:49:34.198Z,9.12
2017-05-22T06:52:02.376Z,11.12
2017-05-22T06:54:30.642Z,9.52
2017-05-22T06:56:59.612Z,12.76
2017-05-22T06:59:30.300Z,8.66
2017-05-22T07:01:59.581Z,9.14
2017-05-22T07:04:32.421Z,9.20
2017-05-22T07:07:02.556Z,9.78
2017-05-22T07:09:30.032Z,10.24
2017-05-22T07:11:57.248Z,9.70
2017-05-22T07:14:25.417Z,9.78
2017-05-22T07:16:52.840Z,9.44
2017-05-22T07:19:20.132Z,9.54
2017-05-22T07:21:47.433Z,9.54
2017-05-22T07:24:14.663Z,9.32
2017-05-22T07:26:41.966Z,9.26
2017-05-22T07:29:09.176Z,8.30
2017-05-22T07:31:36.434Z,8.48
2017-05-22T07:34:04.856Z,7.84
2017-05-22T07:36:32.054Z,9.00
2017-05-22T07:38:59.259Z,9.36
2017-05-22T07:41:26.448Z,9.26
2017-05-22T07:43:53.714Z,9.40
2017-05-22T07:46:22.564Z,8.08
2017-05-22T07:48:50.051Z,8.52
2017-05-22T07:51:32.925Z,8.76
2017-05-22T07:54:00.337Z,8.66
2017-05-22T07:56:27.554Z,8.30
2017-05-22T07:58:54.807Z,8.82
2017-05-22T08:01:23.394Z,6.56
2017-05-22T08:03:55.259Z,7.22
2017-05-22T08:06:24.391Z,5.54
2017-05-22T08:08:55.990Z,6.90
2017-05-22T08:11:23.378Z,6.96
2017-05-22T08:13:51.653Z,5.46
2017-05-22T08:16:18.958Z,5.54
2017-05-22T08:18:46.283Z,6.26
2017-05-22T08:21:13.559Z,7.20
2017-05-22T08:23:40.810Z,6.04
2017-05-22T08:26:08.047Z,6.12
2017-05-22T08:28:35.306Z,6.36
2017-05-22T08:31:02.628Z,5.88
2017-05-22T08:33:48.444Z,6.16
2017-05-22T08:36:15.757Z,6.06
2017-05-22T08:38:43.088Z,6.30
2017-05-22T08:41:17.909Z,5.78
2017-05-22T08:43:45.235Z,6.36
2017-05-22T08:46:13.076Z,5.70
2017-05-22T08:48:40.309Z,6.28
2017-05-22T08:51:07.550Z,6.04
2017-05-22T08:53:47.972Z,5.98
2017-05-22T08:56:15.225Z,5.04
2017-05-22T08:58:42.446Z,5.58
2017-05-22T09:01:20.764Z,5.56
2017-05-22T09:03:48.106Z,5.22
2017-05-22T09:06:15.329Z,5.18
2017-05-22T09:08:43.531Z,5.68
2017-05-22T09:11:13.837Z,6.24
2017-05-22T09:13:47.930Z,5.50
2017-05-22T09:16:15.176Z,5.10
2017-05-22T09:21:37.283Z,4.66
2017-05-22T09:24:18.470Z,4.52
2017-05-22T09:26:45.690Z,4.22
2017-05-22T09:29:18.681Z,4.84
2017-05-22T09:31:45.886Z,4.62
2017-05-22T09:34:20.461Z,4.08
2017-05-22T09:37:00.638Z,2.68
2017-05-22T09:42:24.810Z,5.38
2017-05-22T09:44:52.144Z,2.98
2017-05-22T09:47:19.376Z,2.62
2017-05-22T09:49:47.542Z,2.20
2017-05-22T09:52:14.843Z,2.50
2017-05-22T09:54:42.121Z,3.96
2017-05-22T09:57:12.345Z,2.14
2017-05-22T09:59:39.775Z,5.92
2017-05-22T10:02:07.767Z,7.28
2017-05-22T10:04:35.099Z,2.62
2017-05-22T10:07:02.344Z,2.52
2017-05-22T10:09:29.567Z,4.18
2017-05-22T10:11:56.798Z,3.12
2017-05-22T10:17:00.810Z,3.32
2017-05-22T10:22:06.682Z,3.12
2017-05-22T10:24:33.943Z,3.00
2017-05-22T10:27:05.089Z,2.96
2017-05-22T10:29:48.610Z,2.80
2017-05-22T10:32:20.790Z,3.80
2017-05-22T10:34:48.059Z,3.86
2017-05-22T10:37:15.274Z,2.60
2017-05-22T10:39:42.539Z,2.22
2017-05-22T10:42:09.842Z,2.88
2017-05-22T10:44:47.432Z,2.14
2017-05-22T10:47:14.818Z,2.76
2017-05-22T10:49:45.590Z,1.96
2017-05-22T10:52:18.079Z,1.96
2017-05-22T10:54:45.322Z,3.18
2017-05-22T10:57:12.600Z,3.52
2017-05-22T11:02:16.456Z,2.20
2017-05-22T11:04:43.705Z,3.86
2017-05-22T11:07:10.956Z,4.06
2017-05-22T11:09:48.046Z,2.52
2017-05-22T11:12:20.007Z,2.40
2017-05-22T11:14:48.134Z,2.30
2017-05-22T11:17:16.933Z,2.50
2017-05-22T11:19:44.205Z,3.18
2017-05-22T11:22:12.510Z,4.42
2017-05-22T11:24:39.834Z,3.96
2017-05-22T11:27:17.985Z,4.32
2017-05-22T11:29:57.563Z,2.10
2017-05-22T11:32:28.128Z,2.64
2017-05-22T11:34:55.385Z,4.18
2017-05-22T11:40:03.067Z,2.50
2017-05-22T11:45:09.532Z,2.94
2017-05-22T11:47:36.815Z,1.96
2017-05-22T11:50:18.475Z,2.22
2017-05-22T11:52:45.782Z,2.38
2017-05-22T11:55:13.079Z,1.98
2017-05-22T11:57:47.987Z,1.94
2017-05-22T12:00:18.090Z,3.04
2017-05-22T12:02:45.364Z,2.46
2017-05-22T12:05:13.578Z,3.36
2017-05-22T12:07:51.123Z,2.46
2017-05-22T12:10:18.416Z,1.98
2017-05-22T12:12:45.845Z,4.60
2017-05-22T12:15:15.854Z,2.62
2017-05-22T12:17:49.382Z,2.78
2017-05-22T12:23:01.434Z,3.98
2017-05-22T12:25:28.771Z,2.30
2017-05-22T12:27:56.026Z,3.30
2017-05-22T12:32:58.287Z,2.42
2017-05-22T12:41:13.697Z,1.54
2017-05-22T12:43:48.465Z,1.70
2017-05-22T12:46:15.740Z,4.06
2017-05-22T12:48:50.109Z,2.68
2017-05-22T12:51:17.510Z,4.16
2017-05-22T12:53:44.783Z,1.70
2017-05-22T12:56:12.023Z,1.78
2017-05-22T12:58:39.312Z,1.68
2017-05-22T13:01:20.323Z,3.06
2017-05-22T13:03:47.765Z,1.56
2017-05-22T13:06:19.728Z,1.40
2017-05-22T13:09:17.784Z,1.72
2017-05-22T13:11:47.611Z,1.60
2017-05-22T13:14:18.320Z,3.68
2017-05-22T13:16:45.739Z,1.64
2017-05-22T13:19:13.037Z,1.50
2017-05-22T13:21:40.448Z,1.48
2017-05-22T13:24:07.712Z,1.46
2017-05-22T13:26:35.092Z,1.70
2017-05-22T13:29:08.530Z,2.72
2017-05-22T13:31:40.733Z,2.20
2017-05-22T13:34:14.015Z,1.96
2017-05-22T13:36:44.584Z,1.70
2017-05-22T13:39:11.911Z,2.14
2017-05-22T13:41:44.649Z,2.22
2017-05-22T13:44:17.620Z,1.86
2017-05-22T13:46:50.832Z,1.58
2017-05-22T13:49:18.882Z,3.16
2017-05-22T13:51:46.295Z,1.50
2017-05-22T13:54:14.496Z,1.76
2017-05-22T13:56:49.834Z,5.00
2017-05-22T13:59:17.255Z,2.22
2017-05-22T14:01:44.537Z,1.56
2017-05-22T14:04:11.856Z,1.94
2017-05-22T14:06:41.388Z,1.32
2017-05-22T14:09:08.708Z,1.78
2017-05-22T14:11:36.971Z,2.60
2017-05-22T14:14:04.350Z,3.62
2017-05-22T14:16:31.562Z,2.20
2017-05-22T14:18:58.936Z,2.22
2017-05-22T14:21:27.154Z,2.40
2017-05-22T14:23:54.363Z,2.06
2017-05-22T14:26:27.493Z,1.86
2017-05-22T14:28:56.291Z,3.16
2017-05-22T14:33:58.279Z,2.94
2017-05-22T14:36:25.535Z,2.24
2017-05-22T14:38:52.813Z,2.28
2017-05-22T14:41:20.921Z,1.52
2017-05-22T14:43:52.337Z,1.80
2017-05-22T14:46:19.801Z,2.34
2017-05-22T14:48:48.508Z,1.94
2017-05-22T14:51:16.918Z,5.18
2017-05-22T14:53:47.512Z,1.40
2017-05-22T14:56:14.978Z,1.64
2017-05-22T14:58:43.297Z,2.24
2017-05-22T15:01:10.755Z,1.80
2017-05-22T15:03:38.087Z,2.28
2017-05-22T15:06:05.395Z,1.64
2017-05-22T15:08:33.665Z,1.60
2017-05-22T15:11:01.033Z,3.28
2017-05-22T15:13:42.563Z,1.50
2017-05-22T15:16:09.803Z,2.10
2017-05-22T15:18:36.986Z,2.38
2017-05-22T15:21:04.249Z,1.98
2017-05-22T15:23:31.712Z,1.86
2017-05-22T15:25:59.703Z,2.28
2017-05-22T15:28:26.961Z,1.64
2017-05-22T15:30:58.939Z,1.78
2017-05-22T15:33:26.209Z,2.92
2017-05-22T15:35:56.822Z,1.66
2017-05-22T15:38:24.066Z,1.80
2017-05-22T15:40:52.327Z,2.22
2017-05-22T15:43:20.422Z,3.74
2017-05-22T15:45:52.690Z,2.62
2017-05-22T15:48:19.965Z,3.92
2017-05-22T15:50:47.534Z,1.78
2017-05-22T15:53:15.750Z,2.58
2017-05-22T15:55:42.965Z,3.34
2017-05-22T15:58:10.183Z,7.30
2017-05-22T16:00:37.432Z,1.66
2017-05-22T16:03:04.653Z,1.76
2017-05-22T16:05:31.978Z,1.96
2017-05-22T16:07:59.219Z,4.54
2017-05-22T16:10:26.446Z,1.46
2017-05-22T16:12:53.794Z,2.02
2017-05-22T16:15:21.010Z,3.88
2017-05-22T16:17:48.272Z,2.12
2017-05-22T16:20:15.540Z,1.76
2017-05-22T16:22:42.772Z,1.90
2017-05-22T16:25:10.012Z,2.38
2017-05-22T16:27:37.339Z,1.60
2017-05-22T16:30:04.648Z,3.08
2017-05-22T16:32:31.926Z,3.08
2017-05-22T16:34:59.212Z,1.56
2017-05-22T16:37:26.486Z,1.90
2017-05-22T16:39:53.715Z,6.04
2017-05-22T16:42:34.261Z,1.98
2017-05-22T16:45:02.056Z,3.02
2017-05-22T16:47:30.168Z,2.42
2017-05-22T16:49:58.774Z,2.52
2017-05-22T16:52:26.782Z,2.02
2017-05-22T17:03:35.572Z,2.66
2017-05-22T17:17:16.219Z,2.14
2017-05-22T17:19:43.470Z,2.12
2017-05-22T17:22:10.916Z,2.10
2017-05-22T17:24:38.278Z,2.12
2017-05-22T17:27:06.941Z,3.22
2017-05-22T17:29:35.300Z,2.30
2017-05-22T17:32:10.606Z,2.40
2017-05-22T17:34:37.888Z,3.64
2017-05-22T17:37:05.157Z,4.40
2017-05-22T17:39:32.589Z,2.32
2017-05-22T17:41:59.945Z,3.60
2017-05-22T17:44:27.257Z,2.50
2017-05-22T17:46:54.900Z,3.04
2017-05-22T17:49:22.203Z,1.90
2017-05-22T17:52:06.254Z,4.68
2017-05-22T17:54:33.636Z,2.50
2017-05-22T17:57:18.362Z,2.20
2017-05-22T17:59:51.228Z,2.94
2017-05-22T18:02:18.682Z,1.50
2017-05-22T18:04:46.284Z,1.90
2017-05-22T18:07:13.533Z,1.80
2017-05-22T18:09:42.438Z,2.60
2017-05-22T18:12:10.893Z,2.50
2017-05-22T18:14:38.172Z,2.32
2017-05-22T18:17:09.335Z,2.12
2017-05-22T18:19:44.150Z,2.60
2017-05-22T18:22:11.558Z,2.96
2017-05-22T18:24:39.902Z,3.10
2017-05-22T18:27:07.164Z,1.88
2017-05-22T18:29:34.592Z,2.92
2017-05-22T18:32:01.941Z,3.20
2017-05-22T18:34:31.891Z,2.14
2017-05-22T18:37:02.708Z,5.22
2017-05-22T18:39:30.085Z,3.04
2017-05-22T18:41:57.361Z,2.10
2017-05-22T18:44:24.688Z,2.20
2017-05-22T18:46:54.650Z,2.84
2017-05-22T18:49:22.953Z,2.52
2017-05-22T18:51:58.341Z,2.90
2017-05-22T18:54:25.692Z,3.38
2017-05-22T18:59:43.651Z,2.32
2017-05-22T19:02:10.960Z,2.08
2017-05-22T19:04:38.312Z,2.30
2017-05-22T19:07:05.754Z,2.36
2017-05-22T19:09:33.055Z,2.78
2017-05-22T19:12:05.550Z,2.92
2017-05-22T19:14:47.801Z,2.64
2017-05-22T19:17:15.954Z,3.32
2017-05-22T19:19:45.285Z,2.60
2017-05-22T19:22:13.446Z,4.82
2017-05-22T19:24:40.704Z,3.22
2017-05-22T19:27:10.095Z,2.48
2017-05-22T19:29:40.668Z,3.92
2017-05-22T19:32:09.830Z,3.04
2017-05-22T19:34:49.591Z,3.42
2017-05-22T19:37:17.166Z,3.06
2017-05-22T19:40:01.521Z,3.00
2017-05-22T19:42:28.788Z,2.70
2017-05-22T19:44:58.035Z,2.96
2017-05-22T19:47:27.022Z,2.62
2017-05-22T19:49:58.274Z,2.80
2017-05-22T19:52:25.560Z,2.64
2017-05-22T19:54:54.138Z,3.44
2017-05-22T19:57:25.051Z,3.00
2017-05-22T19:59:56.198Z,3.04
2017-05-22T20:02:23.548Z,3.38
2017-05-22T20:04:54.134Z,3.46
2017-05-22T20:07:21.393Z,3.68
2017-05-22T20:09:48.699Z,3.50
2017-05-22T20:12:18.723Z,6.32
2017-05-22T20:14:49.507Z,3.92
2017-05-22T20:17:27.805Z,3.28
2017-05-22T20:19:56.063Z,3.46
2017-05-22T20:22:24.320Z,3.14
2017-05-22T20:24:51.679Z,3.20
2017-05-22T20:27:18.997Z,3.18
2017-05-22T20:29:46.304Z,3.40
2017-05-22T20:32:14.575Z,5.50
2017-05-22T20:34:42.013Z,3.72
2017-05-22T20:37:12.874Z,3.34
2017-05-22T20:39:40.228Z,4.24
2017-05-22T20:42:08.803Z,3.70
2017-05-22T20:44:35.998Z,3.90
2017-05-22T20:47:03.304Z,3.90
2017-05-22T20:49:31.787Z,3.80
2017-05-22T20:51:59.067Z,3.70
2017-05-22T20:54:26.552Z,4.72
2017-05-22T20:56:53.794Z,4.68
2017-05-22T20:59:21.118Z,4.00
2017-05-22T21:01:48.372Z,4.36
2017-05-22T21:04:16.624Z,4.36
2017-05-22T21:06:45.884Z,4.08
2017-05-22T21:09:13.145Z,4.24
2017-05-22T21:11:40.368Z,4.34
2017-05-22T21:14:07.707Z,4.98
2017-05-22T21:16:34.973Z,4.30
2017-05-22T21:19:02.287Z,4.44
2017-05-22T21:21:29.521Z,3.88
2017-05-22T21:23:56.798Z,4.70
2017-05-22T21:26:24.148Z,4.46
2017-05-22T21:28:51.392Z,4.34
2017-05-22T21:31:18.667Z,4.24
2017-05-22T21:33:45.995Z,5.76
2017-05-22T21:36:13.287Z,4.74
2017-05-22T21:38:40.660Z,5.82
2017-05-22T21:41:08.432Z,5.38
2017-05-22T21:43:36.351Z,5.56
2017-05-22T21:46:03.638Z,4.72
2017-05-22T21:48:30.867Z,4.90
2017-05-22T21:50:58.189Z,4.90
2017-05-22T21:53:25.418Z,4.84
2017-05-22T21:55:53.512Z,4.58
2017-05-22T21:58:20.870Z,4.88
2017-05-22T22:00:48.173Z,4.94
2017-05-22T22:03:15.542Z,4.74
2017-05-22T22:05:42.851Z,6.66
2017-05-22T22:08:10.238Z,4.76
2017-05-22T22:10:37.465Z,5.10
2017-05-22T22:13:04.698Z,5.10
2017-05-22T22:15:31.986Z,5.20
2017-05-22T22:17:59.196Z,6.90
2017-05-22T22:20:26.403Z,4.96
2017-05-22T22:22:53.690Z,5.52
2017-05-22T22:25:20.912Z,5.24
2017-05-22T22:27:48.115Z,4.58
2017-05-22T22:30:15.351Z,5.18
2017-05-22T22:32:42.604Z,5.68
2017-05-22T22:35:09.808Z,5.06
2017-05-22T22:37:37.023Z,7.00
2017-05-22T22:40:05.940Z,5.62
2017-05-22T22:42:33.624Z,5.18
2017-05-22T22:45:01.162Z,5.54
2017-05-22T22:47:28.426Z,5.68
2017-05-22T22:49:55.713Z,5.92
2017-05-22T22:52:22.956Z,5.36
2017-05-22T22:54:50.266Z,5.74
2017-05-22T22:57:21.477Z,6.10
2017-05-22T22:59:49.293Z,5.72
2017-05-22T23:02:16.660Z,8.12
2017-05-22T23:04:43.864Z,5.72
2017-05-22T23:07:11.116Z,5.82
2017-05-22T23:09:38.411Z,6.50
2017-05-22T23:12:05.690Z,6.24
2017-05-22T23:14:33.451Z,6.46
2017-05-22T23:17:00.772Z,7.18
2017-05-22T23:19:28.081Z,5.52
2017-05-22T23:21:55.366Z,6.22
2017-05-22T23:24:22.632Z,6.34
2017-05-22T23:26:50.074Z,6.06
2017-05-22T23:29:21.060Z,6.54
2017-05-22T23:31:50.986Z,5.98
2017-05-22T23:34:20.269Z,6.38
2017-05-22T23:36:48.395Z,5.68
2017-05-22T23:39:15.642Z,6.20
2017-05-22T23:41:42.978Z,6.50
2017-05-22T23:46:47.935Z,6.56
2017-05-22T23:49:15.167Z,7.26
2017-05-22T23:51:42.397Z,7.66
2017-05-22T23:54:09.641Z,6.06
2017-05-22T23:56:37.308Z,6.24
2017-05-22T23:59:04.571Z,6.64
